createdAt,value
2018-06-03T00:00:34.221Z,14.50
2018-06-03T00:03:02.895Z,14.50
2018-06-03T00:05:31.560Z,14.60
2018-06-03T00:08:00.242Z,14.60
2018-06-03T00:10:28.980Z,14.60
2018-06-03T00:12:57.640Z,14.60
2018-06-03T00:15:26.236Z,14.70
2018-06-03T00:17:54.864Z,14.70
2018-06-03T00:20:34.689Z,14.70
2018-06-03T00:23:03.400Z,14.70
2018-06-03T00:25:32.064Z,14.70
2018-06-03T00:28:00.737Z,14.70
2018-06-03T00:30:29.352Z,14.60
2018-06-03T00:32:58.173Z,14.50
2018-06-03T00:35:26.784Z,14.40
2018-06-03T00:37:55.337Z,14.30
2018-06-03T00:40:24.008Z,14.30
2018-06-03T00:42:52.604Z,14.30
2018-06-03T00:45:21.300Z,14.40
2018-06-03T00:47:50.022Z,14.30
2018-06-03T00:50:19.106Z,14.30
2018-06-03T00:52:47.756Z,14.20
2018-06-03T00:55:16.355Z,14.20
2018-06-03T00:57:46.437Z,14.10
2018-06-03T01:00:15.002Z,14.00
2018-06-03T01:02:43.658Z,14.00
2018-06-03T01:05:12.332Z,13.90
2018-06-03T01:07:40.962Z,13.90
2018-06-03T01:10:09.570Z,13.80
2018-06-03T01:12:38.179Z,13.80
2018-06-03T01:15:06.949Z,13.80
2018-06-03T01:17:35.632Z,13.80
2018-06-03T01:20:04.258Z,13.80
2018-06-03T01:22:32.959Z,13.80
2018-06-03T01:25:01.579Z,13.80
2018-06-03T01:27:30.286Z,13.90
2018-06-03T01:29:59.019Z,13.80
2018-06-03T01:32:27.695Z,13.90
2018-06-03T01:34:56.318Z,13.90
2018-06-03T01:37:25.005Z,13.90
2018-06-03T01:39:53.610Z,13.90
2018-06-03T01:42:22.280Z,13.90
2018-06-03T01:44:50.949Z,13.90
2018-06-03T01:47:19.569Z,13.80
2018-06-03T01:49:48.204Z,13.80
2018-06-03T01:52:16.860Z,13.70
2018-06-03T01:54:45.471Z,13.60
2018-06-03T01:57:14.098Z,13.60
2018-06-03T01:59:42.715Z,13.60
2018-06-03T02:02:11.429Z,13.60
2018-06-03T02:04:40.073Z,13.60
2018-06-03T02:07:08.721Z,13.60
2018-06-03T02:09:37.381Z,13.60
2018-06-03T02:12:06.089Z,13.60
2018-06-03T02:14:34.772Z,13.40
2018-06-03T02:17:03.425Z,13.40
2018-06-03T02:19:32.092Z,13.30
2018-06-03T02:22:00.759Z,13.30
2018-06-03T02:24:29.400Z,13.30
2018-06-03T02:26:58.071Z,13.30
2018-06-03T02:29:26.755Z,13.30
2018-06-03T02:31:55.369Z,13.40
2018-06-03T02:34:24.058Z,13.40
2018-06-03T02:36:52.648Z,13.40
2018-06-03T02:39:21.260Z,13.40
2018-06-03T02:41:49.962Z,13.40
2018-06-03T02:44:18.597Z,13.40
2018-06-03T02:46:47.237Z,13.40
2018-06-03T02:49:15.969Z,13.40
2018-06-03T02:51:44.668Z,13.30
2018-06-03T02:54:13.269Z,13.20
2018-06-03T02:56:41.945Z,13.10
2018-06-03T02:59:10.555Z,13.10
2018-06-03T03:01:39.247Z,13.10
2018-06-03T03:04:07.937Z,13.10
2018-06-03T03:06:36.607Z,13.20
2018-06-03T03:09:06.554Z,13.20
2018-06-03T03:11:35.191Z,13.20
2018-06-03T03:14:03.892Z,13.20
2018-06-03T03:16:32.529Z,13.20
2018-06-03T03:19:01.144Z,13.10
2018-06-03T03:21:29.753Z,13.10
2018-06-03T03:23:58.449Z,13.10
2018-06-03T03:26:27.142Z,13.10
2018-06-03T03:28:55.805Z,13.00
2018-06-03T03:31:24.412Z,13.00
2018-06-03T03:33:53.014Z,13.10
2018-06-03T03:36:21.644Z,13.20
2018-06-03T03:38:50.294Z,13.10
2018-06-03T03:41:19.549Z,13.10
2018-06-03T03:43:48.182Z,13.00
2018-06-03T03:46:16.771Z,13.10
2018-06-03T03:48:45.397Z,13.20
2018-06-03T03:51:14.069Z,13.20
2018-06-03T03:53:43.283Z,13.20
2018-06-03T03:56:11.947Z,13.30
2018-06-03T03:58:40.599Z,13.40
2018-06-03T04:01:09.469Z,13.40
2018-06-03T04:03:38.114Z,13.50
2018-06-03T04:06:06.795Z,13.60
2018-06-03T04:08:35.560Z,13.50
2018-06-03T04:11:04.242Z,13.50
2018-06-03T04:13:33.953Z,13.60
2018-06-03T04:16:02.614Z,13.70
2018-06-03T04:18:31.373Z,13.80
2018-06-03T04:21:00.000Z,13.90
2018-06-03T04:23:29.066Z,14.00
2018-06-03T04:25:57.786Z,14.10
2018-06-03T04:28:28.505Z,14.00
2018-06-03T04:30:57.248Z,14.00
2018-06-03T04:33:25.922Z,14.00
2018-06-03T04:35:54.564Z,14.00
2018-06-03T04:38:23.204Z,14.10
2018-06-03T04:40:51.828Z,14.10
2018-06-03T04:43:20.475Z,14.20
2018-06-03T04:45:49.075Z,14.40
2018-06-03T04:48:17.745Z,14.50
2018-06-03T04:50:46.381Z,14.40
2018-06-03T04:53:15.084Z,14.50
2018-06-03T04:55:43.825Z,14.60
2018-06-03T04:58:13.308Z,14.80
2018-06-03T05:00:43.303Z,14.90
2018-06-03T05:05:40.906Z,15.20
2018-06-03T05:13:30.810Z,15.50
2018-06-03T05:15:59.468Z,15.60
2018-06-03T05:18:28.090Z,15.80
2018-06-03T05:20:56.768Z,16.00
2018-06-03T05:23:25.458Z,16.20
2018-06-03T05:25:54.118Z,16.30
2018-06-03T05:28:22.748Z,16.50
2018-06-03T05:30:51.346Z,16.70
2018-06-03T05:33:19.997Z,16.90
2018-06-03T05:35:48.660Z,16.90
2018-06-03T05:38:17.271Z,16.90
2018-06-03T05:40:45.979Z,16.90
2018-06-03T05:43:14.612Z,17.00
2018-06-03T05:45:43.320Z,17.10
2018-06-03T05:48:11.928Z,17.60
2018-06-03T05:50:58.521Z,18.00
2018-06-03T05:53:27.118Z,18.00
2018-06-03T05:55:55.741Z,18.00
2018-06-03T05:58:24.344Z,17.70
2018-06-03T06:00:52.967Z,17.60
2018-06-03T06:03:21.689Z,17.60
2018-06-03T06:05:50.324Z,17.80
2018-06-03T06:08:19.039Z,17.80
2018-06-03T06:10:53.368Z,17.90
2018-06-03T06:13:22.179Z,17.80
2018-06-03T06:15:50.892Z,17.90
2018-06-03T06:18:19.478Z,18.10
2018-06-03T06:20:59.916Z,18.30
2018-06-03T06:23:28.525Z,18.40
2018-06-03T06:26:19.067Z,18.50
2018-06-03T06:28:47.711Z,18.50
2018-06-03T06:31:16.396Z,18.60
2018-06-03T06:33:44.995Z,18.60
2018-06-03T06:36:13.616Z,18.70
2018-06-03T06:38:42.338Z,18.70
2018-06-03T06:41:11.051Z,18.80
2018-06-03T06:43:39.733Z,18.90
2018-06-03T06:46:08.409Z,18.90
2018-06-03T06:48:37.141Z,19.00
2018-06-03T06:51:05.814Z,19.00
2018-06-03T06:53:34.465Z,19.20
2018-06-03T06:56:03.157Z,19.30
2018-06-03T06:58:31.765Z,19.50
2018-06-03T07:01:00.523Z,19.70
2018-06-03T07:03:29.163Z,20.00
2018-06-03T07:05:57.861Z,20.30
2018-06-03T07:10:54.776Z,21.20
2018-06-03T07:13:23.448Z,21.60
2018-06-03T07:15:52.103Z,21.90
2018-06-03T07:18:20.789Z,21.60
2018-06-03T07:20:49.413Z,21.70
2018-06-03T07:23:18.135Z,21.80
2018-06-03T07:25:46.781Z,22.00
2018-06-03T07:28:15.557Z,22.00
2018-06-03T07:30:44.315Z,22.40
2018-06-03T07:33:12.968Z,23.10
2018-06-03T07:35:41.604Z,24.00
2018-06-03T07:40:38.538Z,27.70
2018-06-03T07:43:07.168Z,29.40
2018-06-03T07:45:35.808Z,30.70
2018-06-03T07:48:04.469Z,31.70
2018-06-03T07:50:33.555Z,31.90
2018-06-03T07:53:02.266Z,31.50
2018-06-03T07:55:30.936Z,31.50
2018-06-03T07:57:59.680Z,31.40
2018-06-03T08:00:28.322Z,31.40
2018-06-03T08:02:57.018Z,30.40
2018-06-03T08:05:25.855Z,29.10
2018-06-03T08:07:54.574Z,28.80
2018-06-03T08:10:23.307Z,28.60
2018-06-03T08:12:52.045Z,28.50
2018-06-03T08:15:20.738Z,28.50
2018-06-03T08:17:49.491Z,28.90
2018-06-03T08:20:18.208Z,29.30
2018-06-03T08:22:46.932Z,29.40
2018-06-03T08:25:15.564Z,30.60
2018-06-03T08:27:44.209Z,31.90
2018-06-03T08:30:12.929Z,32.80
2018-06-03T08:32:41.574Z,33.80
2018-06-03T08:35:10.281Z,35.20
2018-06-03T08:37:38.905Z,35.80
2018-06-03T08:40:07.560Z,36.50
2018-06-03T08:42:36.161Z,36.50
2018-06-03T08:45:04.897Z,37.00
2018-06-03T08:47:33.567Z,37.00
2018-06-03T08:50:02.201Z,37.40
2018-06-03T08:52:30.926Z,36.70
2018-06-03T08:54:59.584Z,36.40
2018-06-03T08:57:28.267Z,36.80
2018-06-03T08:59:56.973Z,36.90
2018-06-03T09:02:35.226Z,36.90
2018-06-03T09:05:03.943Z,37.50
2018-06-03T09:07:32.549Z,37.30
2018-06-03T09:10:01.256Z,37.40
2018-06-03T09:12:29.885Z,38.30
2018-06-03T09:14:58.609Z,38.50
2018-06-03T09:17:27.258Z,38.70
2018-06-03T09:19:56.013Z,38.90
2018-06-03T09:22:24.822Z,39.30
2018-06-03T09:24:53.426Z,39.00
2018-06-03T09:27:22.151Z,38.20
2018-06-03T09:29:50.824Z,37.70
2018-06-03T09:32:19.517Z,38.30
2018-06-03T09:34:48.160Z,38.60
2018-06-03T09:37:16.793Z,38.50
2018-06-03T09:39:45.448Z,38.50
2018-06-03T09:42:14.111Z,39.00
2018-06-03T09:44:42.873Z,39.20
2018-06-03T09:47:11.502Z,39.40
2018-06-03T09:49:40.740Z,39.70
2018-06-03T09:52:09.565Z,39.60
2018-06-03T09:54:38.453Z,39.10
2018-06-03T09:57:07.094Z,38.70
2018-06-03T09:59:35.880Z,38.70
2018-06-03T10:02:04.634Z,38.90
2018-06-03T10:04:33.384Z,38.00
2018-06-03T10:07:02.118Z,38.60
2018-06-03T10:09:30.876Z,38.00
2018-06-03T10:11:59.585Z,37.50
2018-06-03T10:14:28.365Z,36.60
2018-06-03T10:16:57.187Z,36.70
2018-06-03T10:19:25.782Z,36.70
2018-06-03T10:21:54.405Z,37.50
2018-06-03T10:24:23.132Z,38.40
2018-06-03T10:26:51.749Z,38.30
2018-06-03T10:32:13.477Z,38.90
2018-06-03T10:34:42.116Z,39.10
2018-06-03T10:37:10.667Z,39.10
2018-06-03T10:39:39.238Z,39.20
2018-06-03T10:44:36.115Z,40.10
2018-06-03T10:47:14.298Z,40.00
2018-06-03T10:49:42.877Z,40.10
2018-06-03T10:52:11.477Z,40.60
2018-06-03T10:54:40.132Z,40.20
2018-06-03T10:57:08.798Z,40.00
2018-06-03T10:59:37.494Z,39.40
2018-06-03T11:02:06.106Z,38.40
2018-06-03T11:04:34.697Z,38.00
2018-06-03T11:07:03.305Z,37.10
2018-06-03T11:09:32.073Z,36.60
2018-06-03T11:12:00.716Z,36.70
2018-06-03T11:14:29.434Z,37.10
2018-06-03T11:16:58.104Z,37.00
2018-06-03T11:19:26.675Z,37.10
2018-06-03T11:21:55.280Z,36.90
2018-06-03T11:24:23.953Z,37.20
2018-06-03T11:26:52.599Z,36.90
2018-06-03T11:29:21.274Z,36.50
2018-06-03T11:31:49.857Z,36.50
2018-06-03T11:34:18.581Z,36.30
2018-06-03T11:36:47.203Z,36.70
2018-06-03T11:39:15.890Z,37.00
2018-06-03T11:41:44.588Z,37.10
2018-06-03T11:44:13.177Z,37.80
2018-06-03T11:46:41.801Z,37.70
2018-06-03T11:49:10.489Z,37.10
2018-06-03T11:51:39.294Z,37.00
2018-06-03T11:54:10.373Z,35.70
2018-06-03T11:56:50.058Z,34.40
2018-06-03T11:59:45.466Z,34.50
2018-06-03T12:02:16.453Z,35.70
2018-06-03T12:04:45.046Z,36.40
2018-06-03T12:07:13.827Z,35.80
2018-06-03T12:09:42.625Z,35.40
2018-06-03T12:12:11.470Z,35.40
2018-06-03T12:14:40.229Z,35.20
2018-06-03T12:17:08.876Z,34.60
2018-06-03T12:22:06.870Z,34.50
2018-06-03T12:24:35.551Z,34.20
2018-06-03T12:27:04.242Z,35.00
2018-06-03T12:29:32.945Z,35.20
2018-06-03T12:32:01.533Z,35.20
2018-06-03T12:34:30.161Z,35.20
2018-06-03T12:36:58.793Z,36.00
2018-06-03T12:39:27.534Z,36.40
2018-06-03T12:41:56.281Z,36.50
2018-06-03T12:44:24.818Z,36.50
2018-06-03T12:46:53.532Z,36.40
2018-06-03T12:49:22.177Z,36.90
2018-06-03T12:51:50.882Z,36.70
2018-06-03T12:56:47.665Z,37.20
2018-06-03T12:59:16.272Z,37.20
2018-06-03T13:01:51.281Z,37.20
2018-06-03T13:04:20.000Z,36.80
2018-06-03T13:06:48.593Z,36.90
2018-06-03T13:09:17.264Z,36.40
2018-06-03T13:12:00.476Z,36.40
2018-06-03T13:14:29.150Z,36.30
2018-06-03T13:16:57.928Z,35.80
2018-06-03T13:19:27.740Z,34.90
2018-06-03T13:24:25.705Z,33.00
2018-06-03T13:26:54.429Z,32.60
2018-06-03T13:29:23.148Z,32.50
2018-06-03T13:31:51.915Z,32.20
2018-06-03T13:34:20.541Z,31.70
2018-06-03T13:36:49.214Z,31.20
2018-06-03T13:39:33.650Z,31.00
2018-06-03T13:42:02.275Z,31.50
2018-06-03T13:44:30.916Z,32.20
2018-06-03T13:46:59.539Z,32.70
2018-06-03T13:49:28.237Z,33.20
2018-06-03T13:51:59.171Z,33.70
2018-06-03T13:54:27.756Z,34.40
2018-06-03T13:56:56.372Z,34.90
2018-06-03T13:59:25.060Z,34.50
2018-06-03T14:01:53.691Z,34.10
2018-06-03T14:04:22.417Z,33.80
2018-06-03T14:06:51.187Z,32.70
2018-06-03T14:09:19.896Z,32.20
2018-06-03T14:11:48.592Z,31.50
2018-06-03T14:14:18.472Z,31.00
2018-06-03T14:16:47.523Z,30.40
2018-06-03T14:19:18.243Z,30.10
2018-06-03T14:21:46.926Z,29.90
2018-06-03T14:24:15.912Z,29.50
2018-06-03T14:26:44.776Z,29.50
2018-06-03T14:29:13.418Z,29.30
2018-06-03T14:31:42.095Z,29.20
2018-06-03T14:34:10.771Z,29.20
2018-06-03T14:36:39.484Z,29.10
2018-06-03T14:39:16.411Z,29.00
2018-06-03T14:41:45.183Z,29.20
2018-06-03T14:44:14.014Z,29.70
2018-06-03T14:46:42.760Z,30.80
2018-06-03T14:49:11.394Z,32.20
2018-06-03T14:51:40.162Z,33.10
2018-06-03T14:54:08.880Z,33.70
2018-06-03T14:56:38.399Z,33.90
2018-06-03T14:59:06.939Z,33.70
2018-06-03T15:01:35.649Z,34.00
2018-06-03T15:04:04.346Z,33.80
2018-06-03T15:06:33.041Z,33.90
2018-06-03T15:09:01.785Z,33.50
2018-06-03T15:11:37.390Z,33.30
2018-06-03T15:14:06.105Z,33.20
2018-06-03T15:16:34.844Z,33.40
2018-06-03T15:19:03.598Z,33.20
2018-06-03T15:21:32.522Z,33.00
2018-06-03T15:24:01.206Z,33.00
2018-06-03T15:26:29.872Z,32.50
2018-06-03T15:28:58.540Z,32.50
2018-06-03T15:31:27.403Z,32.00
2018-06-03T15:33:56.088Z,31.50
2018-06-03T15:36:25.454Z,31.60
2018-06-03T15:38:54.236Z,31.90
2018-06-03T15:41:22.890Z,31.90
2018-06-03T15:43:52.723Z,31.90
2018-06-03T15:46:21.426Z,31.60
2018-06-03T15:48:50.219Z,31.30
2018-06-03T15:51:18.879Z,31.40
2018-06-03T15:53:47.593Z,31.70
2018-06-03T15:56:16.377Z,31.90
2018-06-03T15:58:45.883Z,31.80
2018-06-03T16:01:14.478Z,32.00
2018-06-03T16:03:56.637Z,32.20
2018-06-03T16:06:25.401Z,32.30
2018-06-03T16:08:54.253Z,32.10
2018-06-03T16:11:22.939Z,32.00
2018-06-03T16:13:51.606Z,31.90
2018-06-03T16:16:20.372Z,32.00
2018-06-03T16:18:49.141Z,32.00
2018-06-03T16:21:17.740Z,31.90
2018-06-03T16:23:46.398Z,32.10
2018-06-03T16:26:15.086Z,32.10
2018-06-03T16:28:43.709Z,31.90
2018-06-03T16:31:12.474Z,32.10
2018-06-03T16:33:41.241Z,32.20
2018-06-03T16:36:09.951Z,32.10
2018-06-03T16:38:38.630Z,31.90
2018-06-03T16:41:07.295Z,32.00
2018-06-03T16:43:35.990Z,31.50
2018-06-03T16:46:06.740Z,31.40
2018-06-03T16:48:35.373Z,31.20
2018-06-03T16:51:04.054Z,31.00
2018-06-03T16:53:32.825Z,30.80
2018-06-03T16:56:02.077Z,30.20
2018-06-03T16:58:30.842Z,29.50
2018-06-03T17:01:23.357Z,28.70
2018-06-03T17:03:52.123Z,28.20
2018-06-03T17:06:20.717Z,27.60
2018-06-03T17:08:49.420Z,27.50
2018-06-03T17:11:18.326Z,27.30
2018-06-03T17:16:15.372Z,27.00
2018-06-03T17:18:43.982Z,26.80
2018-06-03T17:21:12.644Z,26.60
2018-06-03T17:23:41.427Z,26.40
2018-06-03T17:26:10.798Z,26.10
2018-06-03T17:28:39.563Z,26.00
2018-06-03T17:31:08.249Z,25.80
2018-06-03T17:33:36.937Z,25.70
2018-06-03T17:36:05.774Z,25.50
2018-06-03T17:38:34.421Z,25.30
2018-06-03T17:41:03.133Z,25.20
2018-06-03T17:43:31.742Z,25.10
2018-06-03T17:46:00.504Z,25.10
2018-06-03T17:48:29.292Z,25.10
2018-06-03T17:50:58.117Z,25.10
2018-06-03T17:53:26.844Z,25.20
2018-06-03T17:55:55.575Z,25.20
2018-06-03T17:58:24.189Z,25.20
2018-06-03T18:00:52.904Z,25.30
2018-06-03T18:03:21.582Z,25.30
2018-06-03T18:05:50.262Z,25.30
2018-06-03T18:08:19.000Z,25.30
2018-06-03T18:10:47.749Z,25.20
2018-06-03T18:13:16.437Z,25.30
2018-06-03T18:15:45.136Z,25.20
2018-06-03T18:18:13.845Z,25.10
2018-06-03T18:20:42.560Z,25.00
2018-06-03T18:23:11.295Z,24.80
2018-06-03T18:25:39.997Z,24.60
2018-06-03T18:28:08.663Z,24.50
2018-06-03T18:30:37.353Z,24.30
2018-06-03T18:33:06.077Z,24.10
2018-06-03T18:35:34.674Z,23.90
2018-06-03T18:38:03.414Z,23.80
2018-06-03T18:40:52.055Z,23.60
2018-06-03T18:43:20.700Z,23.40
2018-06-03T18:48:21.701Z,22.70
2018-06-03T18:50:50.831Z,22.50
2018-06-03T18:53:19.494Z,22.20
2018-06-03T18:55:48.334Z,22.10
2018-06-03T18:58:16.987Z,21.80
2018-06-03T19:00:45.753Z,21.70
2018-06-03T19:03:14.402Z,21.50
2018-06-03T19:05:44.219Z,21.30
2018-06-03T19:08:32.334Z,21.10
2018-06-03T19:11:01.184Z,20.90
2018-06-03T19:13:29.963Z,20.80
2018-06-03T19:15:59.654Z,20.60
2018-06-03T19:18:28.473Z,20.60
2018-06-03T19:20:57.229Z,20.50
2018-06-03T19:23:25.855Z,20.40
2018-06-03T19:25:54.605Z,20.30
2018-06-03T19:28:29.934Z,20.20
2018-06-03T19:31:03.903Z,20.10
2018-06-03T19:33:32.520Z,20.00
2018-06-03T19:36:01.381Z,19.90
2018-06-03T19:38:29.975Z,19.80
2018-06-03T19:40:58.738Z,19.70
2018-06-03T19:43:27.437Z,19.60
2018-06-03T19:45:56.077Z,19.60
2018-06-03T19:48:24.723Z,19.50
2018-06-03T19:50:53.544Z,19.50
2018-06-03T19:53:22.248Z,19.50
2018-06-03T19:55:51.004Z,19.50
2018-06-03T19:58:19.738Z,19.40
2018-06-03T20:00:48.372Z,19.40
2018-06-03T20:03:17.208Z,19.30
2018-06-03T20:05:46.011Z,19.30
2018-06-03T20:08:14.817Z,19.20
2018-06-03T20:10:43.489Z,19.10
2018-06-03T20:13:12.131Z,19.00
2018-06-03T20:15:40.860Z,19.00
2018-06-03T20:18:09.982Z,19.00
2018-06-03T20:20:38.654Z,19.00
2018-06-03T20:23:07.384Z,18.90
2018-06-03T20:25:36.158Z,18.80
2018-06-03T20:28:04.828Z,18.70
2018-06-03T20:30:33.500Z,18.50
2018-06-03T20:33:02.531Z,18.50
2018-06-03T20:35:31.179Z,18.40
2018-06-03T20:37:59.801Z,18.30
2018-06-03T20:40:28.514Z,18.30
2018-06-03T20:42:57.130Z,18.30
2018-06-03T20:45:25.732Z,18.30
2018-06-03T20:47:54.401Z,18.20
2018-06-03T20:50:22.998Z,18.20
2018-06-03T20:52:51.671Z,18.30
2018-06-03T20:55:20.395Z,18.20
2018-06-03T20:57:49.025Z,18.10
2018-06-03T21:00:17.653Z,18.00
2018-06-03T21:02:46.314Z,18.00
2018-06-03T21:05:15.806Z,17.90
2018-06-03T21:07:44.445Z,17.70
2018-06-03T21:10:13.073Z,17.70
2018-06-03T21:12:41.755Z,17.60
2018-06-03T21:15:10.462Z,17.50
2018-06-03T21:17:39.142Z,17.40
2018-06-03T21:20:07.880Z,17.40
2018-06-03T21:22:36.518Z,17.50
2018-06-03T21:25:05.220Z,17.50
2018-06-03T21:27:33.893Z,17.50
2018-06-03T21:30:02.518Z,17.50
2018-06-03T21:32:31.244Z,17.50
2018-06-03T21:34:59.825Z,17.60
2018-06-03T21:37:28.479Z,17.60
2018-06-03T21:39:57.181Z,17.50
2018-06-03T21:42:25.742Z,17.50
2018-06-03T21:44:54.329Z,17.50
2018-06-03T21:47:22.957Z,17.40
2018-06-03T21:49:51.609Z,17.30
2018-06-03T21:52:20.233Z,17.20
2018-06-03T21:54:48.887Z,17.10
2018-06-03T21:57:17.553Z,16.90
2018-06-03T21:59:46.191Z,16.90
2018-06-03T22:02:14.842Z,16.80
2018-06-03T22:04:43.454Z,16.80
2018-06-03T22:07:12.004Z,16.90
2018-06-03T22:09:40.608Z,16.90
2018-06-03T22:12:09.188Z,16.80
2018-06-03T22:14:37.876Z,16.80
2018-06-03T22:17:06.506Z,16.80
2018-06-03T22:19:35.082Z,16.80
2018-06-03T22:22:03.846Z,16.90
2018-06-03T22:24:32.492Z,17.00
2018-06-03T22:27:01.155Z,17.00
2018-06-03T22:29:29.748Z,17.00
2018-06-03T22:31:58.290Z,17.10
2018-06-03T22:34:26.832Z,17.10
2018-06-03T22:36:59.566Z,17.10
2018-06-03T22:39:28.173Z,17.00
2018-06-03T22:41:56.825Z,16.90
2018-06-03T22:44:25.510Z,16.70
2018-06-03T22:46:54.108Z,16.60
2018-06-03T22:49:22.749Z,16.50
2018-06-03T22:51:51.460Z,16.30
2018-06-03T22:54:20.082Z,16.20
2018-06-03T22:57:57.885Z,16.20
2018-06-03T23:00:32.726Z,16.10
2018-06-03T23:03:06.578Z,16.10
2018-06-03T23:08:03.693Z,16.10
2018-06-03T23:10:32.370Z,16.20
2018-06-03T23:13:00.995Z,16.10
2018-06-03T23:15:29.672Z,16.10
2018-06-03T23:17:58.324Z,16.10
2018-06-03T23:20:26.936Z,16.10
2018-06-03T23:22:55.618Z,16.10
2018-06-03T23:25:24.232Z,16.00
2018-06-03T23:27:52.844Z,15.90
2018-06-03T23:30:21.441Z,15.90
2018-06-03T23:32:50.018Z,15.80
2018-06-03T23:35:18.679Z,15.90
2018-06-03T23:37:47.358Z,15.90
2018-06-03T23:40:16.003Z,15.90
2018-06-03T23:42:44.627Z,15.90
2018-06-03T23:45:13.281Z,16.00
2018-06-03T23:47:41.904Z,15.90
2018-06-03T23:50:10.525Z,15.90
2018-06-03T23:52:39.140Z,15.90
2018-06-03T23:55:07.753Z,15.90
2018-06-03T23:57:36.414Z,15.90
